Sanliurfa, Turkey

2:37 PM EEST on September 01, 2014 (GMT +0300)
SANLIURFA GAP | Change Station
CLOSE
Current Station
Airport
Location: SANLIURFA GAP,
Elevation: 2707 ft
Nearby Weather Stations

Elev 2707 ft 37.45 °N, 38.90 °E | Updated 17 minutes ago

Clear
Clear
100 °F
Feels Like 100 °F
N
8
Wind Variable Wind from WNW

Today
High -- | Low -- °F
--% Chance of Precip.
Yesterday
High -- | Low -- °F
Precip. -- in
5:55 AM 6:54 PM
Waxing Crescent, 40% visible
Pressure 29.80 in
Visibility -9999.0 miles
Clouds
Dew Point 28 °F
Humidity 8%
Rainfall 0.00 in
Snow Depth Not available.
UV Not available.
Pollen Not available.
Air Quality Not available.
Flu Activity Not available.
METAR LTCS 011120Z 29007KT 210V350 CAVOK 38/M02 Q1009 RMK RWY22 32005KT 260V050

More Conditions Fewer Conditions

Pressure 29.80 in
Visibility -9999.0 miles
Clouds
Dew Point 28 °F
Humidity 8%
Rainfall 0.00 in
Snow Depth Not available.
UV Not available.
Pollen Not available.
Air Quality Not available.
Flu Activity Not available.
METAR LTCS 011120Z 29007KT 210V350 CAVOK 38/M02 Q1009 RMK RWY22 32005KT 260V050

More Conditions Fewer Conditions

10-Day Weather Forecast

Almanac

Astronomy

Sep. 01, 2014 Rise Set
Actual Time 5:55 AM EEST 6:54 PM EEST
Civil Twilight 5:28 AM EEST 7:20 PM EEST
Nautical Twilight 4:57 AM EEST 7:52 PM EEST
Astronomical Twilight 4:24 AM EEST 8:24 PM EEST
Moon 12:10 PM EEST 10:47 PM EEST
Length of Visible Light 13h 51m
Length of Day
12h 58m
Tomorrow will be 2m 16s shorter.
Waxing Crescent, 40% of the Moon is Illuminated
Today
Waxing Crescent
Sep 2
First Quarter
Sep 8
Full
Sep 15
Last Quarter
Sep 24
New

Yesterday's Extremes

Country Highs Country Lows

Community

WunderPhotos

Upload Photos

1,749,188 photos uploaded!

Nearby

Snow Depth

Not available.

Earthquake Activity

City Distance Mag. Time & Date
No recent earthquake activity has been reported nearby.
Minimum magnitude displayed is 2.5.

Coastal Water Temperatures

Place Temperature
No Stations Reporting

Nearby Weather Stations